Sakura — JG5711 — position and weather

sailwx.info

Track history (hours):
 
Tides and Currents Weather Stations Pressure Air Temp Water Temp Dewpoint Dewpoint Depression Visibility Wind Speed Wind Dir Waves Ship Positions

Sakura

Last reported at 2016-Sep-27 23:33 UTC. Time now 2016-Sep-28 00:08 UTC.
Position N 35°27' E 139°40'.

Length 32 m; draft 3.6 m.

Type: Tug. MMSI: 431101178.

Date/timePositionNaut miles runAvg speedWind from/ knotsBaromVisibWave heightAir tempDewpointWater temp
2016-Sep-27 23:33N 35°27' E 139°40'2 0.1
2016-Sep-27 00:33N 35°27' E 139°42'2 0.5
2016-Sep-26 20:34N 35°27' E 139°40'0 0.0
2016-Sep-26 08:21N 35°27' E 139°40'3 0.5
2016-Sep-26 02:33N 35°24' E 139°41'3 3.0
2016-Sep-26 01:33N 35°27' E 139°40'0 0.0
2016-Sep-26 00:33N 35°27' E 139°40'2 0.8
2016-Sep-25 21:33N 35°28' E 139°42'2 0.2
2016-Sep-25 07:09N 35°27' E 139°40'0 0.0
2016-Sep-25 04:33N 35°27' E 139°40'18 4.6
2016-Sep-25 00:33N 35°31' E 140°01'11 5.6
2016-Sep-24 22:33N 35°27' E 139°48'7 7.3
2016-Sep-24 21:33N 35°27' E 139°40'3 0.1
2016-Sep-23 06:33N 35°27' E 139°43'3 1.3
2016-Sep-23 04:11N 35°27' E 139°40'0 0.0
2016-Sep-23 03:33N 35°27' E 139°40'0 0.0
2016-Sep-23 02:33N 35°27' E 139°40'0 0.0
2016-Sep-23 01:33N 35°27' E 139°40'0 0.0
2016-Sep-23 00:33N 35°27' E 139°40'2 1.7
2016-Sep-22 23:34N 35°27' E 139°42'2 0.6
2016-Sep-22 20:33N 35°27' E 139°40'1 0.1
2016-Sep-22 03:10N 35°27' E 139°41'1 0.5
2016-Sep-22 00:33N 35°27' E 139°39'0 0.0
2016-Sep-21 23:33N 35°27' E 139°39'1 0.9
2016-Sep-21 22:34N 35°27' E 139°41'1 0.5
2016-Sep-21 19:34N 35°27' E 139°42'0 0.0
2016-Sep-21 16:34N 35°27' E 139°42'2 0.4
2016-Sep-21 09:33N 35°25' E 139°41'0 0.5
2016-Sep-21 08:33N 35°25' E 139°41'2 0.1
2016-Sep-20 07:09N 35°27' E 139°40'0 0.0
2016-Sep-20 06:33N 35°27' E 139°40'0 0.0
2016-Sep-20 02:33N 35°27' E 139°40'5 1.8
2016-Sep-19 23:33N 35°30' E 139°45'5 0.3
2016-Sep-19 07:10N 35°27' E 139°40'0 0.0
2016-Sep-19 06:33N 35°27' E 139°40'0 0.0
2016-Sep-19 03:33N 35°27' E 139°40'0 0.0
2016-Sep-19 02:33N 35°27' E 139°40'0 0.0
2016-Sep-19 00:33N 35°27' E 139°40'5 0.2
2016-Sep-18 02:33N 35°29' E 139°45'3 2.8
2016-Sep-18 01:33N 35°27' E 139°43'3 2.8
2016-Sep-18 00:33N 35°27' E 139°40'  
Track history (hours):
 
Tides and Currents Weather Stations Pressure Air Temp Water Temp Dewpoint Dewpoint Depression Visibility Wind Speed Wind Dir Waves Ship Positions

Sakura

Last reported at 2016-Sep-27 23:33 UTC. Time now 2016-Sep-28 00:08 UTC.
Position N 35°27' E 139°40'.

Length 32 m; draft 3.6 m.

Type: Tug. MMSI: 431101178.

Date/timePositionNaut miles runAvg speedWind from/ knotsBaromVisibWave heightAir tempDewpointWater temp
2016-Sep-27 23:33N 35°27' E 139°40'2 0.1
2016-Sep-27 00:33N 35°27' E 139°42'2 0.5
2016-Sep-26 20:34N 35°27' E 139°40'0 0.0
2016-Sep-26 08:21N 35°27' E 139°40'3 0.5
2016-Sep-26 02:33N 35°24' E 139°41'3 3.0
2016-Sep-26 01:33N 35°27' E 139°40'0 0.0
2016-Sep-26 00:33N 35°27' E 139°40'2 0.8
2016-Sep-25 21:33N 35°28' E 139°42'2 0.2
2016-Sep-25 07:09N 35°27' E 139°40'0 0.0
2016-Sep-25 04:33N 35°27' E 139°40'18 4.6
2016-Sep-25 00:33N 35°31' E 140°01'11 5.6
2016-Sep-24 22:33N 35°27' E 139°48'7 7.3
2016-Sep-24 21:33N 35°27' E 139°40'3 0.1
2016-Sep-23 06:33N 35°27' E 139°43'3 1.3
2016-Sep-23 04:11N 35°27' E 139°40'0 0.0
2016-Sep-23 03:33N 35°27' E 139°40'0 0.0
2016-Sep-23 02:33N 35°27' E 139°40'0 0.0
2016-Sep-23 01:33N 35°27' E 139°40'0 0.0
2016-Sep-23 00:33N 35°27' E 139°40'2 1.7
2016-Sep-22 23:34N 35°27' E 139°42'2 0.6
2016-Sep-22 20:33N 35°27' E 139°40'1 0.1
2016-Sep-22 03:10N 35°27' E 139°41'1 0.5
2016-Sep-22 00:33N 35°27' E 139°39'0 0.0
2016-Sep-21 23:33N 35°27' E 139°39'1 0.9
2016-Sep-21 22:34N 35°27' E 139°41'1 0.5
2016-Sep-21 19:34N 35°27' E 139°42'0 0.0
2016-Sep-21 16:34N 35°27' E 139°42'2 0.4
2016-Sep-21 09:33N 35°25' E 139°41'0 0.5
2016-Sep-21 08:33N 35°25' E 139°41'2 0.1
2016-Sep-20 07:09N 35°27' E 139°40'0 0.0
2016-Sep-20 06:33N 35°27' E 139°40'0 0.0
2016-Sep-20 02:33N 35°27' E 139°40'5 1.8
2016-Sep-19 23:33N 35°30' E 139°45'5 0.3
2016-Sep-19 07:10N 35°27' E 139°40'0 0.0
2016-Sep-19 06:33N 35°27' E 139°40'0 0.0
2016-Sep-19 03:33N 35°27' E 139°40'0 0.0
2016-Sep-19 02:33N 35°27' E 139°40'0 0.0
2016-Sep-19 00:33N 35°27' E 139°40'5 0.2
2016-Sep-18 02:33N 35°29' E 139°45'3 2.8
2016-Sep-18 01:33N 35°27' E 139°43'3 2.8
2016-Sep-18 00:33N 35°27' E 139°40'  

Dump ship's entire track history